createdAt,value
2023-02-28T00:01:35.631Z,19.75
2023-02-28T00:04:04.071Z,18.25
2023-02-28T00:06:32.388Z,21.50
2023-02-28T00:09:00.739Z,20.00
2023-02-28T00:11:29.373Z,23.75
2023-02-28T00:13:57.857Z,23.75
2023-02-28T00:16:26.236Z,22.00
2023-02-28T00:18:54.567Z,22.00
2023-02-28T00:21:23.194Z,19.50
2023-02-28T00:23:51.827Z,20.00
2023-02-28T00:26:21.816Z,17.25
2023-02-28T00:28:50.638Z,18.75
2023-02-28T00:31:18.983Z,18.50
2023-02-28T00:33:47.330Z,18.00
2023-02-28T00:36:15.681Z,17.25
2023-02-28T00:38:44.175Z,16.00
2023-02-28T00:41:12.591Z,18.00
2023-02-28T00:43:41.842Z,14.75
2023-02-28T00:46:11.041Z,16.00
2023-02-28T00:48:39.550Z,14.25
2023-02-28T00:51:08.004Z,17.75
2023-02-28T00:53:36.423Z,17.25
2023-02-28T00:56:05.620Z,20.00
2023-02-28T00:58:34.233Z,20.00
2023-02-28T01:01:02.783Z,19.75
2023-02-28T01:03:31.166Z,20.00
2023-02-28T01:05:59.910Z,21.00
2023-02-28T01:08:28.692Z,20.50
2023-02-28T01:10:57.202Z,22.00
2023-02-28T01:13:27.189Z,23.00
2023-02-28T01:15:58.603Z,21.50
2023-02-28T01:18:27.313Z,20.25
2023-02-28T01:20:55.733Z,20.50
2023-02-28T01:23:25.506Z,18.75
2023-02-28T01:25:54.263Z,19.00
2023-02-28T01:28:23.095Z,17.50
2023-02-28T01:30:52.633Z,15.25
2023-02-28T01:33:21.189Z,14.25
2023-02-28T01:35:49.546Z,12.00
2023-02-28T01:38:22.694Z,14.25
2023-02-28T01:40:52.184Z,12.75
2023-02-28T01:43:34.929Z,12.50
2023-02-28T01:46:03.314Z,11.25
2023-02-28T01:48:39.174Z,10.50
2023-02-28T01:51:14.954Z,11.25
2023-02-28T01:53:57.168Z,8.00
2023-02-28T01:56:31.693Z,10.50
2023-02-28T01:59:00.670Z,10.00
2023-02-28T02:01:30.146Z,8.75
2023-02-28T02:04:04.754Z,7.00
2023-02-28T02:06:39.425Z,8.50
2023-02-28T02:09:11.346Z,9.00
2023-02-28T02:17:50.621Z,8.25
2023-02-28T02:21:01.245Z,8.25
2023-02-28T02:23:50.659Z,10.00
2023-02-28T02:26:47.216Z,7.50
2023-02-28T02:29:37.332Z,10.00
2023-02-28T02:32:16.695Z,8.25
2023-02-28T02:34:58.524Z,11.00
2023-02-28T02:37:33.183Z,10.75
2023-02-28T02:40:17.234Z,10.00
2023-02-28T02:42:53.305Z,9.50
2023-02-28T02:45:26.448Z,10.75
2023-02-28T02:47:57.578Z,9.00
2023-02-28T02:50:33.635Z,8.75
2023-02-28T02:53:05.333Z,9.50
2023-02-28T02:55:40.846Z,8.25
2023-02-28T02:58:13.859Z,7.25
2023-02-28T03:00:48.702Z,9.00
2023-02-28T03:03:23.197Z,6.25
2023-02-28T03:05:52.903Z,7.50
2023-02-28T03:08:21.699Z,9.00
2023-02-28T03:10:58.080Z,9.00
2023-02-28T03:13:41.044Z,8.25
2023-02-28T03:16:31.260Z,8.75
2023-02-28T03:19:27.354Z,8.00
2023-02-28T03:22:26.748Z,8.00
2023-02-28T03:25:08.416Z,7.00
2023-02-28T03:27:54.683Z,8.00
2023-02-28T03:30:31.454Z,8.50
2023-02-28T03:33:07.860Z,9.25
2023-02-28T03:35:48.272Z,9.00
2023-02-28T03:38:24.390Z,10.00
2023-02-28T03:41:16.961Z,9.00
2023-02-28T03:43:51.498Z,8.25
2023-02-28T03:46:24.755Z,8.75
2023-02-28T03:49:10.654Z,8.25
2023-02-28T03:51:42.832Z,7.00
2023-02-28T03:54:20.282Z,7.00
2023-02-28T03:57:03.237Z,8.00
2023-02-28T03:59:55.482Z,9.00
2023-02-28T04:02:23.822Z,6.25
2023-02-28T04:04:53.011Z,6.25
2023-02-28T04:07:21.316Z,4.75
2023-02-28T04:09:49.759Z,7.00
2023-02-28T04:12:18.031Z,7.00
2023-02-28T04:14:46.313Z,7.25
2023-02-28T04:17:14.684Z,5.25
2023-02-28T04:19:42.637Z,7.00
2023-02-28T04:22:12.116Z,5.75
2023-02-28T04:24:43.309Z,6.75
2023-02-28T04:27:11.800Z,6.00
2023-02-28T04:29:40.373Z,6.00
2023-02-28T04:32:08.738Z,7.50
2023-02-28T04:34:37.103Z,6.75
2023-02-28T04:37:13.461Z,5.75
2023-02-28T04:39:43.569Z,6.50
2023-02-28T04:42:12.760Z,6.50
2023-02-28T04:44:41.171Z,4.75
2023-02-28T04:47:09.617Z,6.75
2023-02-28T04:49:37.993Z,8.25
2023-02-28T04:52:06.709Z,7.00
2023-02-28T04:54:35.093Z,7.00
2023-02-28T04:57:03.647Z,7.00
2023-02-28T04:59:32.039Z,6.00
2023-02-28T05:02:00.351Z,4.25
2023-02-28T05:04:28.695Z,6.00
2023-02-28T05:06:57.327Z,5.75
2023-02-28T05:09:25.671Z,7.00
2023-02-28T05:11:54.080Z,7.50
2023-02-28T05:14:22.615Z,6.25
2023-02-28T05:16:50.898Z,6.00
2023-02-28T05:19:19.366Z,6.75
2023-02-28T05:21:55.041Z,5.50
2023-02-28T05:24:26.549Z,5.25
2023-02-28T05:26:56.463Z,6.75
2023-02-28T05:29:25.104Z,8.00
2023-02-28T05:31:53.603Z,5.00
2023-02-28T05:34:21.967Z,5.00
2023-02-28T05:36:50.272Z,7.00
2023-02-28T05:39:18.714Z,5.00
2023-02-28T05:41:47.178Z,6.00
2023-02-28T05:44:15.464Z,6.00
2023-02-28T05:46:43.761Z,5.75
2023-02-28T05:49:12.171Z,5.25
2023-02-28T05:51:41.732Z,6.00
2023-02-28T05:54:11.560Z,7.00
2023-02-28T05:56:42.595Z,7.75
2023-02-28T05:59:11.169Z,6.25
2023-02-28T06:01:42.526Z,7.50
2023-02-28T06:04:25.663Z,6.00
2023-02-28T06:06:59.443Z,5.25
2023-02-28T06:09:27.770Z,5.75
2023-02-28T06:11:56.118Z,6.25
2023-02-28T06:14:24.442Z,7.50
2023-02-28T06:16:52.943Z,6.75
2023-02-28T06:19:21.429Z,5.75
2023-02-28T06:21:54.254Z,6.75
2023-02-28T06:24:23.399Z,6.00
2023-02-28T06:26:51.862Z,5.00
2023-02-28T06:29:20.381Z,5.75
2023-02-28T06:31:49.574Z,6.00
2023-02-28T06:34:18.212Z,7.50
2023-02-28T06:36:46.581Z,6.25
2023-02-28T06:39:14.951Z,6.00
2023-02-28T06:41:54.738Z,6.00
2023-02-28T06:44:24.810Z,7.00
2023-02-28T06:46:53.419Z,7.25
2023-02-28T06:49:21.841Z,5.75
2023-02-28T06:51:50.135Z,8.25
2023-02-28T06:54:18.440Z,5.25
2023-02-28T06:56:46.724Z,7.00
2023-02-28T06:59:15.422Z,7.00
2023-02-28T07:01:43.784Z,4.25
2023-02-28T07:04:12.119Z,7.00
2023-02-28T07:06:40.426Z,6.75
2023-02-28T07:09:08.748Z,7.00
2023-02-28T07:11:37.084Z,7.00
2023-02-28T07:14:05.494Z,7.00
2023-02-28T07:16:34.070Z,6.00
2023-02-28T07:19:02.419Z,6.25
2023-02-28T07:21:31.188Z,6.00
2023-02-28T07:23:59.874Z,6.25
2023-02-28T07:26:28.213Z,6.00
2023-02-28T07:28:56.541Z,6.50
2023-02-28T07:31:24.924Z,7.00
2023-02-28T07:33:53.243Z,6.75
2023-02-28T07:36:21.720Z,7.50
2023-02-28T07:38:51.857Z,6.00
2023-02-28T07:41:22.034Z,6.50
2023-02-28T07:43:51.061Z,5.50
2023-02-28T07:46:20.302Z,6.75
2023-02-28T07:48:48.635Z,7.25
2023-02-28T07:51:16.967Z,7.75
2023-02-28T07:53:45.272Z,7.50
2023-02-28T07:56:13.591Z,7.75
2023-02-28T07:58:41.974Z,6.50
2023-02-28T08:01:11.919Z,6.50
2023-02-28T08:03:41.606Z,7.50
2023-02-28T08:06:20.041Z,6.50
2023-02-28T08:08:48.622Z,6.25
2023-02-28T08:11:18.154Z,6.00
2023-02-28T08:13:47.212Z,6.25
2023-02-28T08:16:23.908Z,5.75
2023-02-28T08:18:54.041Z,7.00
2023-02-28T08:21:23.655Z,6.75
2023-02-28T08:23:53.304Z,6.75
2023-02-28T08:26:22.269Z,6.00
2023-02-28T08:28:51.096Z,6.50
2023-02-28T08:31:19.938Z,7.75
2023-02-28T08:33:50.583Z,7.50
2023-02-28T08:36:19.335Z,7.25
2023-02-28T08:38:47.970Z,5.50
2023-02-28T08:41:16.354Z,6.75
2023-02-28T08:43:44.951Z,7.00
2023-02-28T08:46:15.828Z,8.50
2023-02-28T08:48:44.313Z,8.00
2023-02-28T08:51:24.008Z,7.25
2023-02-28T08:53:52.388Z,6.25
2023-02-28T08:56:21.441Z,8.50
2023-02-28T08:58:51.924Z,7.50
2023-02-28T09:01:29.948Z,7.75
2023-02-28T09:03:59.768Z,9.50
2023-02-28T09:06:29.576Z,7.75
2023-02-28T09:09:03.058Z,7.25
2023-02-28T09:11:32.640Z,6.75
2023-02-28T09:14:02.498Z,8.00
2023-02-28T09:16:31.449Z,7.25
2023-02-28T09:18:59.797Z,7.75
2023-02-28T09:21:29.489Z,8.00
2023-02-28T09:23:58.384Z,7.25
2023-02-28T09:26:34.953Z,7.75
2023-02-28T09:29:11.175Z,8.25
2023-02-28T09:31:39.469Z,6.50
2023-02-28T09:34:08.648Z,7.25
2023-02-28T09:36:45.123Z,8.00
2023-02-28T09:39:17.376Z,9.25
2023-02-28T09:41:52.412Z,7.00
2023-02-28T09:44:45.933Z,7.50
2023-02-28T09:47:29.417Z,7.00
2023-02-28T09:50:00.703Z,8.00
2023-02-28T09:52:32.599Z,7.75
2023-02-28T09:55:20.999Z,7.50
2023-02-28T09:57:49.427Z,9.00
2023-02-28T10:00:25.581Z,8.25
2023-02-28T10:03:08.966Z,8.00
2023-02-28T10:05:56.738Z,6.75
2023-02-28T10:08:43.307Z,8.00
2023-02-28T10:11:17.086Z,8.00
2023-02-28T10:13:54.783Z,7.00
2023-02-28T10:16:31.814Z,7.75
2023-02-28T10:19:14.013Z,7.00
2023-02-28T10:22:09.080Z,8.25
2023-02-28T10:24:45.530Z,8.00
2023-02-28T10:27:25.973Z,8.00
2023-02-28T10:30:04.912Z,8.50
2023-02-28T10:32:36.428Z,8.00
2023-02-28T10:35:31.810Z,6.50
2023-02-28T10:38:03.243Z,7.50
2023-02-28T10:40:39.947Z,8.00
2023-02-28T10:43:21.993Z,8.50
2023-02-28T10:46:04.318Z,7.00
2023-02-28T10:48:41.556Z,6.75
2023-02-28T10:51:17.916Z,7.25
2023-02-28T10:54:00.068Z,7.25
2023-02-28T10:56:30.742Z,7.00
2023-02-28T10:59:33.141Z,7.25
2023-02-28T11:02:01.567Z,6.75
2023-02-28T11:04:31.316Z,6.50
2023-02-28T11:07:06.343Z,7.50
2023-02-28T11:09:42.627Z,8.50
2023-02-28T11:12:24.784Z,6.50
2023-02-28T11:15:03.813Z,8.00
2023-02-28T11:17:34.341Z,6.25
2023-02-28T11:20:24.026Z,7.00
2023-02-28T11:22:53.919Z,5.25
2023-02-28T11:25:35.677Z,8.00
2023-02-28T11:28:08.328Z,7.25
2023-02-28T11:30:40.851Z,6.75
2023-02-28T11:33:24.455Z,8.50
2023-02-28T11:35:54.796Z,7.75
2023-02-28T11:38:23.254Z,6.50
2023-02-28T11:41:29.686Z,6.25
2023-02-28T11:44:00.780Z,7.75
2023-02-28T11:47:10.301Z,7.75
2023-02-28T11:50:10.718Z,8.00
2023-02-28T11:53:03.192Z,7.00
2023-02-28T11:55:40.282Z,7.75
2023-02-28T11:58:31.291Z,6.25
2023-02-28T12:01:18.129Z,6.75
2023-02-28T12:03:58.324Z,8.25
2023-02-28T12:06:41.590Z,6.50
2023-02-28T12:09:49.046Z,6.75
2023-02-28T12:13:06.882Z,7.75
2023-02-28T12:16:06.734Z,8.00
2023-02-28T12:19:10.064Z,7.75
2023-02-28T12:22:14.842Z,10.00
2023-02-28T12:25:20.221Z,11.25
2023-02-28T12:27:52.175Z,12.75
2023-02-28T12:30:32.320Z,13.75
2023-02-28T12:33:09.114Z,15.75
2023-02-28T12:35:43.673Z,13.25
2023-02-28T12:38:26.831Z,17.00
2023-02-28T12:40:58.241Z,13.25
2023-02-28T12:43:35.596Z,12.25
2023-02-28T12:46:17.676Z,13.00
2023-02-28T12:48:50.429Z,12.75
2023-02-28T12:51:20.000Z,16.50
2023-02-28T12:54:01.404Z,13.75
2023-02-28T12:56:38.282Z,15.25
2023-02-28T12:59:34.537Z,13.50
2023-02-28T13:02:18.329Z,13.00
2023-02-28T13:05:05.714Z,15.75
2023-02-28T13:07:52.246Z,14.00
2023-02-28T13:10:21.330Z,14.50
2023-02-28T13:12:55.112Z,16.00
2023-02-28T13:15:30.836Z,16.50
2023-02-28T13:18:01.444Z,17.00
2023-02-28T13:20:37.858Z,16.75
2023-02-28T13:23:07.535Z,18.00
2023-02-28T13:25:35.830Z,18.75
2023-02-28T13:28:10.849Z,21.00
2023-02-28T13:30:54.881Z,19.50
2023-02-28T13:33:55.945Z,20.50
2023-02-28T13:36:24.906Z,20.00
2023-02-28T13:38:55.802Z,22.50
2023-02-28T13:41:33.358Z,21.50
2023-02-28T13:44:13.736Z,21.50
2023-02-28T13:46:51.813Z,21.25
2023-02-28T13:49:35.845Z,20.00
2023-02-28T13:52:18.739Z,21.25
2023-02-28T13:55:10.548Z,21.00
2023-02-28T13:57:57.175Z,21.25
2023-02-28T14:00:59.992Z,20.50
2023-02-28T14:03:50.055Z,20.25
2023-02-28T14:06:36.716Z,20.25
2023-02-28T14:09:26.152Z,21.00
2023-02-28T14:11:55.082Z,20.50
2023-02-28T14:14:38.679Z,19.00
2023-02-28T14:17:16.491Z,19.75
2023-02-28T14:19:51.421Z,19.25
2023-02-28T14:22:19.736Z,20.00
2023-02-28T14:25:08.072Z,19.75
2023-02-28T14:27:40.614Z,21.00
2023-02-28T14:30:47.435Z,19.00
2023-02-28T14:33:25.950Z,19.75
2023-02-28T14:36:16.965Z,19.00
2023-02-28T14:38:59.353Z,20.00
2023-02-28T14:41:39.261Z,21.00
2023-02-28T14:44:19.467Z,19.00
2023-02-28T14:46:51.518Z,17.75
2023-02-28T14:49:36.530Z,21.00
2023-02-28T14:52:24.362Z,19.25
2023-02-28T14:54:59.790Z,19.75
2023-02-28T14:57:29.896Z,19.75
2023-02-28T15:00:28.127Z,19.00
2023-02-28T15:02:58.334Z,19.00
2023-02-28T15:05:33.865Z,19.25
2023-02-28T15:08:13.867Z,19.00
2023-02-28T15:11:04.541Z,19.00
2023-02-28T15:13:48.980Z,19.75
2023-02-28T15:16:38.075Z,19.00
2023-02-28T15:19:20.819Z,18.25
2023-02-28T15:21:54.391Z,19.00
2023-02-28T15:24:28.502Z,19.00
2023-02-28T15:27:00.579Z,18.00
2023-02-28T15:29:31.431Z,19.25
2023-02-28T15:32:22.240Z,18.00
2023-02-28T15:34:51.047Z,19.00
2023-02-28T15:37:37.890Z,20.00
2023-02-28T15:40:24.763Z,19.00
2023-02-28T15:43:08.663Z,20.50
2023-02-28T15:45:52.561Z,18.25
2023-02-28T15:48:29.782Z,16.75
2023-02-28T15:51:09.144Z,18.25
2023-02-28T15:53:52.081Z,19.25
2023-02-28T15:56:32.743Z,19.25
2023-02-28T15:59:06.923Z,19.00
2023-02-28T16:01:40.100Z,19.00
2023-02-28T16:04:18.029Z,19.50
2023-02-28T16:07:03.108Z,16.75
2023-02-28T16:09:34.414Z,17.75
2023-02-28T16:12:05.427Z,18.25
2023-02-28T16:14:34.199Z,18.75
2023-02-28T16:17:19.544Z,18.75
2023-02-28T16:19:47.846Z,17.75
2023-02-28T16:22:16.221Z,17.50
2023-02-28T16:24:44.777Z,18.00
2023-02-28T16:27:21.416Z,19.25
2023-02-28T16:29:50.709Z,18.75
2023-02-28T16:32:19.301Z,18.50
2023-02-28T16:34:47.759Z,20.00
2023-02-28T16:37:18.609Z,20.50
2023-02-28T16:39:48.915Z,19.00
2023-02-28T16:42:25.454Z,20.00
2023-02-28T16:44:55.314Z,19.00
2023-02-28T16:47:24.644Z,19.00
2023-02-28T16:49:52.980Z,20.00
2023-02-28T16:52:21.282Z,21.00
2023-02-28T16:54:49.657Z,20.75
2023-02-28T16:57:25.937Z,19.25
2023-02-28T16:59:54.250Z,20.50
2023-02-28T17:02:22.863Z,19.00
2023-02-28T17:04:51.259Z,19.00
2023-02-28T17:07:19.690Z,19.00
2023-02-28T17:09:48.052Z,21.50
2023-02-28T17:12:16.507Z,21.25
2023-02-28T17:14:44.951Z,21.00
2023-02-28T17:17:22.616Z,20.50
2023-02-28T17:19:51.216Z,20.00
2023-02-28T17:22:19.531Z,22.00
2023-02-28T17:24:47.834Z,21.00
2023-02-28T17:27:16.137Z,20.50
2023-02-28T17:29:44.455Z,22.50
2023-02-28T17:32:19.684Z,23.75
2023-02-28T17:34:48.218Z,23.00
2023-02-28T17:37:16.778Z,23.25
2023-02-28T17:39:45.169Z,24.00
2023-02-28T17:42:14.093Z,23.00
2023-02-28T17:44:42.450Z,22.00
2023-02-28T17:47:14.774Z,22.50
2023-02-28T17:49:43.624Z,22.25
2023-02-28T17:52:11.968Z,23.25
2023-02-28T17:54:40.369Z,23.00
2023-02-28T17:57:11.742Z,22.00
2023-02-28T17:59:40.046Z,23.00
2023-02-28T18:02:08.632Z,22.00
2023-02-28T18:04:36.938Z,22.25
2023-02-28T18:07:05.706Z,23.25
2023-02-28T18:09:34.037Z,21.25
2023-02-28T18:12:02.385Z,22.50
2023-02-28T18:14:30.701Z,22.00
2023-02-28T18:16:59.216Z,23.00
2023-02-28T18:19:27.709Z,22.00
2023-02-28T18:21:56.144Z,22.00
2023-02-28T18:24:25.478Z,23.50
2023-02-28T18:26:53.900Z,21.75
2023-02-28T18:29:24.621Z,22.75
2023-02-28T18:31:54.244Z,23.25
2023-02-28T18:34:23.434Z,22.00
2023-02-28T18:36:54.056Z,22.50
2023-02-28T18:39:23.017Z,25.25
2023-02-28T18:41:51.469Z,22.50
2023-02-28T18:44:21.088Z,21.00
2023-02-28T18:46:51.214Z,22.00
2023-02-28T18:49:19.861Z,23.00
2023-02-28T18:51:48.695Z,23.00
2023-02-28T18:54:18.394Z,23.50
2023-02-28T18:56:47.227Z,21.75
2023-02-28T18:59:15.632Z,23.50
2023-02-28T19:01:45.480Z,24.75
2023-02-28T19:04:17.077Z,22.50
2023-02-28T19:06:45.457Z,23.00
2023-02-28T19:09:13.822Z,24.25
2023-02-28T19:11:42.307Z,24.25
2023-02-28T19:14:10.619Z,22.50
2023-02-28T19:16:39.163Z,22.00
2023-02-28T19:19:07.660Z,22.00
2023-02-28T19:21:37.472Z,22.75
2023-02-28T19:24:06.163Z,22.00
2023-02-28T19:26:34.869Z,23.25
2023-02-28T19:29:07.259Z,25.00
2023-02-28T19:31:35.780Z,24.00
2023-02-28T19:34:04.217Z,23.25
2023-02-28T19:36:32.592Z,23.00
2023-02-28T19:39:00.920Z,23.00
2023-02-28T19:41:29.630Z,22.25
2023-02-28T19:43:58.113Z,22.75
2023-02-28T19:46:27.187Z,23.00
2023-02-28T19:48:56.333Z,23.00
2023-02-28T19:51:24.952Z,24.75
2023-02-28T19:53:53.370Z,23.75
2023-02-28T19:56:21.853Z,26.00
2023-02-28T19:58:50.172Z,24.50
2023-02-28T20:01:21.337Z,23.00
2023-02-28T20:03:52.598Z,22.50
2023-02-28T20:06:21.018Z,23.25
2023-02-28T20:08:49.315Z,23.00
2023-02-28T20:11:18.751Z,23.00
2023-02-28T20:13:47.193Z,22.00
2023-02-28T20:16:16.872Z,23.75
2023-02-28T20:18:46.826Z,25.00
2023-02-28T20:21:15.637Z,25.00
2023-02-28T20:23:44.325Z,23.75
2023-02-28T20:26:13.760Z,23.50
2023-02-28T20:28:42.782Z,24.50
2023-02-28T20:31:26.463Z,23.00
2023-02-28T20:33:54.914Z,24.25
2023-02-28T20:36:24.436Z,24.25
2023-02-28T20:38:54.016Z,24.50
2023-02-28T20:41:23.161Z,23.00
2023-02-28T20:44:04.730Z,23.00
2023-02-28T20:46:35.354Z,23.25
2023-02-28T20:49:03.758Z,24.00
2023-02-28T20:51:32.064Z,24.00
2023-02-28T20:54:00.366Z,24.25
2023-02-28T20:56:28.846Z,23.00
2023-02-28T20:58:58.945Z,26.00
2023-02-28T21:01:29.700Z,23.00
2023-02-28T21:04:03.978Z,23.25
2023-02-28T21:06:35.589Z,23.25
2023-02-28T21:09:08.218Z,23.00
2023-02-28T21:11:38.846Z,25.50
2023-02-28T21:14:10.650Z,24.00
2023-02-28T21:16:38.983Z,23.25
2023-02-28T21:19:07.292Z,23.00
2023-02-28T21:21:43.964Z,24.50
2023-02-28T21:24:22.059Z,23.50
2023-02-28T21:26:50.544Z,25.00
2023-02-28T21:29:18.920Z,25.00
2023-02-28T21:31:47.365Z,23.00
2023-02-28T21:34:15.913Z,23.00
2023-02-28T21:36:48.796Z,22.75
2023-02-28T21:39:24.619Z,23.75
2023-02-28T21:41:54.060Z,23.75
2023-02-28T21:44:23.614Z,23.00
2023-02-28T21:46:55.800Z,22.50
2023-02-28T21:49:24.181Z,24.25
2023-02-28T21:51:52.501Z,23.00
2023-02-28T21:54:20.836Z,24.50
2023-02-28T21:56:51.488Z,24.00
2023-02-28T21:59:20.985Z,25.00
2023-02-28T22:01:56.376Z,24.00
2023-02-28T22:04:24.887Z,23.50
2023-02-28T22:06:55.559Z,23.25
2023-02-28T22:09:24.810Z,25.00
2023-02-28T22:11:53.299Z,24.50
2023-02-28T22:14:21.929Z,24.75
2023-02-28T22:16:52.991Z,24.75
2023-02-28T22:19:22.861Z,25.25
2023-02-28T22:21:52.549Z,25.25
2023-02-28T22:24:25.045Z,25.00
2023-02-28T22:26:54.785Z,25.50
2023-02-28T22:29:23.609Z,25.00
2023-02-28T22:31:52.392Z,24.75
2023-02-28T22:34:20.884Z,25.50
2023-02-28T22:36:49.301Z,25.00
2023-02-28T22:39:17.746Z,25.75
2023-02-28T22:41:46.075Z,25.25
2023-02-28T22:44:14.562Z,26.75
2023-02-28T22:46:42.958Z,25.00
2023-02-28T22:49:11.346Z,26.25
2023-02-28T22:51:39.687Z,27.00
2023-02-28T22:54:08.010Z,25.75
2023-02-28T22:56:36.396Z,27.25
2023-02-28T22:59:05.142Z,26.50
2023-02-28T23:01:35.554Z,27.25
2023-02-28T23:04:04.877Z,26.50
2023-02-28T23:06:38.994Z,25.25
2023-02-28T23:09:09.616Z,26.50
2023-02-28T23:11:42.170Z,26.00
2023-02-28T23:14:13.685Z,27.00
2023-02-28T23:16:45.576Z,26.75
2023-02-28T23:19:27.452Z,26.50
2023-02-28T23:21:55.813Z,27.00
2023-02-28T23:24:26.735Z,27.00
2023-02-28T23:26:57.144Z,27.00
2023-02-28T23:29:26.393Z,28.00
2023-02-28T23:31:55.392Z,27.00
2023-02-28T23:34:31.243Z,27.50
2023-02-28T23:37:01.702Z,29.00
2023-02-28T23:39:31.518Z,29.75
2023-02-28T23:42:00.676Z,30.00
2023-02-28T23:44:29.221Z,28.00
2023-02-28T23:46:57.567Z,28.75
2023-02-28T23:49:26.723Z,30.00
2023-02-28T23:51:55.280Z,29.75
2023-02-28T23:54:23.815Z,29.00
2023-02-28T23:56:52.189Z,29.00
2023-02-28T23:59:20.804Z,30.00
